sensor_id;sensor_type;location;lat;lon;timestamp;temperature;humidity
18225;DHT22;9237;48.590;8.854;2023-03-03T00:00:05;0.00;99.90
18225;DHT22;9237;48.590;8.854;2023-03-03T00:02:32;0.00;99.90
18225;DHT22;9237;48.590;8.854;2023-03-03T00:04:59;0.00;99.90
18225;DHT22;9237;48.590;8.854;2023-03-03T00:07:25;0.00;99.90
18225;DHT22;9237;48.590;8.854;2023-03-03T00:09:54;0.00;99.90
18225;DHT22;9237;48.590;8.854;2023-03-03T00:12:24;0.10;99.90
18225;DHT22;9237;48.590;8.854;2023-03-03T00:14:51;0.10;99.90
18225;DHT22;9237;48.590;8.854;2023-03-03T00:17:21;0.10;99.90
18225;DHT22;9237;48.590;8.854;2023-03-03T00:19:48;0.10;99.90
18225;DHT22;9237;48.590;8.854;2023-03-03T00:22:23;0.20;99.90
18225;DHT22;9237;48.590;8.854;2023-03-03T00:24:54;0.30;99.90
18225;DHT22;9237;48.590;8.854;2023-03-03T00:27:27;0.30;99.90
18225;DHT22;9237;48.590;8.854;2023-03-03T00:29:56;0.40;99.90
18225;DHT22;9237;48.590;8.854;2023-03-03T00:32:25;0.50;99.90
18225;DHT22;9237;48.590;8.854;2023-03-03T00:34:54;0.50;99.90
18225;DHT22;9237;48.590;8.854;2023-03-03T00:37:29;0.50;99.90
18225;DHT22;9237;48.590;8.854;2023-03-03T00:40:25;0.40;99.90
18225;DHT22;9237;48.590;8.854;2023-03-03T00:42:54;0.50;99.90
18225;DHT22;9237;48.590;8.854;2023-03-03T00:45:29;0.50;99.90
18225;DHT22;9237;48.590;8.854;2023-03-03T00:47:57;0.50;99.90
18225;DHT22;9237;48.590;8.854;2023-03-03T00:50:27;0.50;99.90
18225;DHT22;9237;48.590;8.854;2023-03-03T00:53:03;0.50;99.90
18225;DHT22;9237;48.590;8.854;2023-03-03T00:55:33;0.50;99.90
18225;DHT22;9237;48.590;8.854;2023-03-03T00:58:01;0.40;99.90
18225;DHT22;9237;48.590;8.854;2023-03-03T01:00:28;0.40;99.90
18225;DHT22;9237;48.590;8.854;2023-03-03T01:02:55;0.30;99.90
18225;DHT22;9237;48.590;8.854;2023-03-03T01:05:22;0.20;99.90
18225;DHT22;9237;48.590;8.854;2023-03-03T01:07:49;0.10;99.90
18225;DHT22;9237;48.590;8.854;2023-03-03T01:10:16;0.00;99.90
18225;DHT22;9237;48.590;8.854;2023-03-03T01:12:44;-0.10;99.90
18225;DHT22;9237;48.590;8.854;2023-03-03T01:15:13;-0.20;99.90
18225;DHT22;9237;48.590;8.854;2023-03-03T01:17:40;-0.30;99.90
18225;DHT22;9237;48.590;8.854;2023-03-03T01:20:10;-0.30;99.90
18225;DHT22;9237;48.590;8.854;2023-03-03T01:22:37;-0.40;99.90
18225;DHT22;9237;48.590;8.854;2023-03-03T01:25:04;-0.40;99.90
18225;DHT22;9237;48.590;8.854;2023-03-03T01:27:33;-0.50;99.90
18225;DHT22;9237;48.590;8.854;2023-03-03T01:30:02;-0.60;99.90
18225;DHT22;9237;48.590;8.854;2023-03-03T01:32:28;-0.50;99.90
18225;DHT22;9237;48.590;8.854;2023-03-03T01:34:55;-0.60;99.90
18225;DHT22;9237;48.590;8.854;2023-03-03T01:37:22;-0.60;99.90
18225;DHT22;9237;48.590;8.854;2023-03-03T01:39:50;-0.60;99.90
18225;DHT22;9237;48.590;8.854;2023-03-03T01:42:16;-0.70;99.90
18225;DHT22;9237;48.590;8.854;2023-03-03T01:44:44;-0.70;99.90
18225;DHT22;9237;48.590;8.854;2023-03-03T01:47:14;-0.60;99.90
18225;DHT22;9237;48.590;8.854;2023-03-03T01:49:44;-0.70;99.90
18225;DHT22;9237;48.590;8.854;2023-03-03T01:52:16;-0.70;99.90
18225;DHT22;9237;48.590;8.854;2023-03-03T01:54:49;-0.80;99.90
18225;DHT22;9237;48.590;8.854;2023-03-03T01:57:22;-0.90;99.90
18225;DHT22;9237;48.590;8.854;2023-03-03T01:59:51;-1.00;99.90
18225;DHT22;9237;48.590;8.854;2023-03-03T02:02:21;-1.10;99.90
18225;DHT22;9237;48.590;8.854;2023-03-03T02:04:49;-1.10;99.90
18225;DHT22;9237;48.590;8.854;2023-03-03T02:07:17;-1.20;99.90
18225;DHT22;9237;48.590;8.854;2023-03-03T02:09:51;-1.20;99.90
18225;DHT22;9237;48.590;8.854;2023-03-03T02:12:25;-1.20;99.90
18225;DHT22;9237;48.590;8.854;2023-03-03T02:14:54;-1.20;99.90
18225;DHT22;9237;48.590;8.854;2023-03-03T02:17:22;-1.40;99.90
18225;DHT22;9237;48.590;8.854;2023-03-03T02:19:53;-1.40;99.90
18225;DHT22;9237;48.590;8.854;2023-03-03T02:22:31;-1.40;99.90
18225;DHT22;9237;48.590;8.854;2023-03-03T02:25:01;-1.50;99.90
18225;DHT22;9237;48.590;8.854;2023-03-03T02:27:32;-1.60;99.90
18225;DHT22;9237;48.590;8.854;2023-03-03T02:30:08;-1.60;99.90
18225;DHT22;9237;48.590;8.854;2023-03-03T02:32:36;-1.60;99.90
18225;DHT22;9237;48.590;8.854;2023-03-03T02:35:24;-1.70;99.90
18225;DHT22;9237;48.590;8.854;2023-03-03T02:37:52;-1.80;99.90
18225;DHT22;9237;48.590;8.854;2023-03-03T02:40:23;-1.90;99.90
18225;DHT22;9237;48.590;8.854;2023-03-03T02:42:52;-1.90;99.90
18225;DHT22;9237;48.590;8.854;2023-03-03T02:45:21;-1.90;99.90
18225;DHT22;9237;48.590;8.854;2023-03-03T02:47:48;-1.90;99.90
18225;DHT22;9237;48.590;8.854;2023-03-03T02:50:15;-1.80;99.90
18225;DHT22;9237;48.590;8.854;2023-03-03T02:52:42;-1.70;99.90
18225;DHT22;9237;48.590;8.854;2023-03-03T02:55:09;-1.70;99.90
18225;DHT22;9237;48.590;8.854;2023-03-03T02:57:36;-1.80;99.90
18225;DHT22;9237;48.590;8.854;2023-03-03T03:00:05;-1.80;99.90
18225;DHT22;9237;48.590;8.854;2023-03-03T03:02:32;-0.80;99.90
18225;DHT22;9237;48.590;8.854;2023-03-03T03:04:59;-1.90;99.90
18225;DHT22;9237;48.590;8.854;2023-03-03T03:07:26;-1.90;99.90
18225;DHT22;9237;48.590;8.854;2023-03-03T03:09:52;-1.60;99.90
18225;DHT22;9237;48.590;8.854;2023-03-03T03:12:20;-1.50;99.90
18225;DHT22;9237;48.590;8.854;2023-03-03T03:14:47;-1.40;99.90
18225;DHT22;9237;48.590;8.854;2023-03-03T03:17:15;-1.50;99.90
18225;DHT22;9237;48.590;8.854;2023-03-03T03:19:42;-1.40;99.90
18225;DHT22;9237;48.590;8.854;2023-03-03T03:22:08;-1.30;99.90
18225;DHT22;9237;48.590;8.854;2023-03-03T03:24:35;-1.20;99.90
18225;DHT22;9237;48.590;8.854;2023-03-03T03:27:02;-1.10;99.90
18225;DHT22;9237;48.590;8.854;2023-03-03T03:29:29;-1.10;99.90
18225;DHT22;9237;48.590;8.854;2023-03-03T03:31:56;-1.10;99.90
18225;DHT22;9237;48.590;8.854;2023-03-03T03:34:24;-1.00;99.90
18225;DHT22;9237;48.590;8.854;2023-03-03T03:36:50;-0.90;99.90
18225;DHT22;9237;48.590;8.854;2023-03-03T03:39:17;-0.80;99.90
18225;DHT22;9237;48.590;8.854;2023-03-03T03:41:45;-0.70;99.90
18225;DHT22;9237;48.590;8.854;2023-03-03T03:44:11;-0.60;99.90
18225;DHT22;9237;48.590;8.854;2023-03-03T03:46:38;-0.60;99.90
18225;DHT22;9237;48.590;8.854;2023-03-03T03:49:05;-0.50;99.90
18225;DHT22;9237;48.590;8.854;2023-03-03T03:51:33;-0.50;99.90
18225;DHT22;9237;48.590;8.854;2023-03-03T03:54:02;-0.40;99.90
18225;DHT22;9237;48.590;8.854;2023-03-03T03:56:29;-0.50;99.90
18225;DHT22;9237;48.590;8.854;2023-03-03T03:58:56;-0.50;99.90
18225;DHT22;9237;48.590;8.854;2023-03-03T04:01:23;-0.50;99.90
18225;DHT22;9237;48.590;8.854;2023-03-03T04:03:51;-0.50;99.90
18225;DHT22;9237;48.590;8.854;2023-03-03T04:06:18;-0.50;99.90
18225;DHT22;9237;48.590;8.854;2023-03-03T04:08:46;-0.50;99.90
18225;DHT22;9237;48.590;8.854;2023-03-03T04:11:13;-0.50;99.90
18225;DHT22;9237;48.590;8.854;2023-03-03T04:13:39;-0.40;99.90
18225;DHT22;9237;48.590;8.854;2023-03-03T04:16:06;-0.40;99.90
18225;DHT22;9237;48.590;8.854;2023-03-03T04:18:33;-0.30;99.90
18225;DHT22;9237;48.590;8.854;2023-03-03T04:21:00;-0.30;99.90
18225;DHT22;9237;48.590;8.854;2023-03-03T04:23:27;-0.20;99.90
18225;DHT22;9237;48.590;8.854;2023-03-03T04:25:55;-0.20;99.90
18225;DHT22;9237;48.590;8.854;2023-03-03T04:28:22;-0.10;99.90
18225;DHT22;9237;48.590;8.854;2023-03-03T04:30:49;-0.10;99.90
18225;DHT22;9237;48.590;8.854;2023-03-03T04:33:16;-0.10;99.90
18225;DHT22;9237;48.590;8.854;2023-03-03T04:35:43;0.00;99.90
18225;DHT22;9237;48.590;8.854;2023-03-03T04:38:10;0.00;99.90
18225;DHT22;9237;48.590;8.854;2023-03-03T04:40:38;0.00;99.90
18225;DHT22;9237;48.590;8.854;2023-03-03T04:43:07;-0.10;99.90
18225;DHT22;9237;48.590;8.854;2023-03-03T04:45:34;0.00;99.90
18225;DHT22;9237;48.590;8.854;2023-03-03T04:48:01;0.00;99.90
18225;DHT22;9237;48.590;8.854;2023-03-03T04:50:27;0.00;99.90
18225;DHT22;9237;48.590;8.854;2023-03-03T04:52:54;0.10;99.90
18225;DHT22;9237;48.590;8.854;2023-03-03T04:55:21;0.10;99.90
18225;DHT22;9237;48.590;8.854;2023-03-03T04:57:48;0.10;99.90
18225;DHT22;9237;48.590;8.854;2023-03-03T05:00:17;0.10;99.90
18225;DHT22;9237;48.590;8.854;2023-03-03T05:02:45;0.10;99.90
18225;DHT22;9237;48.590;8.854;2023-03-03T05:05:12;0.10;99.90
18225;DHT22;9237;48.590;8.854;2023-03-03T05:07:40;0.10;99.90
18225;DHT22;9237;48.590;8.854;2023-03-03T05:10:07;0.10;99.90
18225;DHT22;9237;48.590;8.854;2023-03-03T05:12:34;0.10;99.90
18225;DHT22;9237;48.590;8.854;2023-03-03T05:15:01;0.10;99.90
18225;DHT22;9237;48.590;8.854;2023-03-03T05:17:29;0.10;99.90
18225;DHT22;9237;48.590;8.854;2023-03-03T05:19:56;0.10;99.90
18225;DHT22;9237;48.590;8.854;2023-03-03T05:22:23;0.10;99.90
18225;DHT22;9237;48.590;8.854;2023-03-03T05:24:50;0.10;99.90
18225;DHT22;9237;48.590;8.854;2023-03-03T05:27:16;0.10;99.90
18225;DHT22;9237;48.590;8.854;2023-03-03T05:29:43;0.10;99.90
18225;DHT22;9237;48.590;8.854;2023-03-03T05:32:11;0.20;99.90
18225;DHT22;9237;48.590;8.854;2023-03-03T05:34:39;0.20;99.90
18225;DHT22;9237;48.590;8.854;2023-03-03T05:37:06;0.20;99.90
18225;DHT22;9237;48.590;8.854;2023-03-03T05:39:32;0.20;99.90
18225;DHT22;9237;48.590;8.854;2023-03-03T05:41:59;0.20;99.90
18225;DHT22;9237;48.590;8.854;2023-03-03T05:44:27;0.20;99.90
18225;DHT22;9237;48.590;8.854;2023-03-03T05:46:53;0.20;99.90
18225;DHT22;9237;48.590;8.854;2023-03-03T05:49:22;0.20;99.90
18225;DHT22;9237;48.590;8.854;2023-03-03T05:51:50;0.10;99.90
18225;DHT22;9237;48.590;8.854;2023-03-03T05:54:17;0.10;99.90
18225;DHT22;9237;48.590;8.854;2023-03-03T05:56:43;0.10;99.90
18225;DHT22;9237;48.590;8.854;2023-03-03T05:59:10;0.20;99.90
18225;DHT22;9237;48.590;8.854;2023-03-03T06:01:37;0.20;99.90
18225;DHT22;9237;48.590;8.854;2023-03-03T06:04:04;0.20;99.90
18225;DHT22;9237;48.590;8.854;2023-03-03T06:06:30;0.20;99.90
18225;DHT22;9237;48.590;8.854;2023-03-03T06:08:59;0.30;99.90
18225;DHT22;9237;48.590;8.854;2023-03-03T06:11:25;0.50;99.90
18225;DHT22;9237;48.590;8.854;2023-03-03T06:13:52;0.60;99.90
18225;DHT22;9237;48.590;8.854;2023-03-03T06:16:19;0.70;99.90
18225;DHT22;9237;48.590;8.854;2023-03-03T06:18:46;0.90;99.90
18225;DHT22;9237;48.590;8.854;2023-03-03T06:21:12;0.80;99.90
18225;DHT22;9237;48.590;8.854;2023-03-03T06:23:39;0.90;99.90
18225;DHT22;9237;48.590;8.854;2023-03-03T06:26:08;0.90;99.90
18225;DHT22;9237;48.590;8.854;2023-03-03T06:28:34;0.80;99.90
18225;DHT22;9237;48.590;8.854;2023-03-03T06:31:01;0.80;99.90
18225;DHT22;9237;48.590;8.854;2023-03-03T06:33:28;0.80;99.90
18225;DHT22;9237;48.590;8.854;2023-03-03T06:35:55;0.80;99.90
18225;DHT22;9237;48.590;8.854;2023-03-03T06:38:21;0.80;99.90
18225;DHT22;9237;48.590;8.854;2023-03-03T06:40:48;0.80;99.90
18225;DHT22;9237;48.590;8.854;2023-03-03T06:43:16;0.90;99.90
18225;DHT22;9237;48.590;8.854;2023-03-03T06:45:44;0.80;99.90
18225;DHT22;9237;48.590;8.854;2023-03-03T06:48:11;0.90;99.90
18225;DHT22;9237;48.590;8.854;2023-03-03T06:50:37;0.90;99.90
18225;DHT22;9237;48.590;8.854;2023-03-03T06:53:10;0.90;99.90
18225;DHT22;9237;48.590;8.854;2023-03-03T06:55:37;0.90;99.90
18225;DHT22;9237;48.590;8.854;2023-03-03T06:58:08;0.90;99.90
18225;DHT22;9237;48.590;8.854;2023-03-03T07:00:40;0.90;99.90
18225;DHT22;9237;48.590;8.854;2023-03-03T07:03:13;0.90;99.90
18225;DHT22;9237;48.590;8.854;2023-03-03T07:05:40;0.90;99.90
18225;DHT22;9237;48.590;8.854;2023-03-03T07:08:12;1.00;99.90
18225;DHT22;9237;48.590;8.854;2023-03-03T07:10:40;1.00;99.90
18225;DHT22;9237;48.590;8.854;2023-03-03T07:13:17;1.10;99.90
18225;DHT22;9237;48.590;8.854;2023-03-03T07:15:46;1.10;99.90
18225;DHT22;9237;48.590;8.854;2023-03-03T07:18:25;1.20;99.90
18225;DHT22;9237;48.590;8.854;2023-03-03T07:20:57;1.30;99.90
18225;DHT22;9237;48.590;8.854;2023-03-03T07:23:27;1.30;99.90
18225;DHT22;9237;48.590;8.854;2023-03-03T07:25:55;1.40;99.90
18225;DHT22;9237;48.590;8.854;2023-03-03T07:28:23;1.50;99.90
18225;DHT22;9237;48.590;8.854;2023-03-03T07:30:53;1.60;99.90
18225;DHT22;9237;48.590;8.854;2023-03-03T07:33:24;1.60;99.90
18225;DHT22;9237;48.590;8.854;2023-03-03T07:35:53;1.60;99.90
18225;DHT22;9237;48.590;8.854;2023-03-03T07:38:33;1.70;99.90
18225;DHT22;9237;48.590;8.854;2023-03-03T07:41:02;1.80;99.90
18225;DHT22;9237;48.590;8.854;2023-03-03T07:43:34;1.90;99.90
18225;DHT22;9237;48.590;8.854;2023-03-03T07:46:20;2.00;99.90
18225;DHT22;9237;48.590;8.854;2023-03-03T07:48:49;2.20;99.90
18225;DHT22;9237;48.590;8.854;2023-03-03T07:51:20;2.20;99.90
18225;DHT22;9237;48.590;8.854;2023-03-03T07:53:50;2.30;99.90
18225;DHT22;9237;48.590;8.854;2023-03-03T07:56:26;2.40;99.90
18225;DHT22;9237;48.590;8.854;2023-03-03T07:58:53;2.50;99.90
18225;DHT22;9237;48.590;8.854;2023-03-03T08:01:40;2.60;99.90
18225;DHT22;9237;48.590;8.854;2023-03-03T08:04:17;2.60;99.90
18225;DHT22;9237;48.590;8.854;2023-03-03T08:06:50;2.70;99.90
18225;DHT22;9237;48.590;8.854;2023-03-03T08:09:30;2.80;99.90
18225;DHT22;9237;48.590;8.854;2023-03-03T08:14:53;3.00;99.90
18225;DHT22;9237;48.590;8.854;2023-03-03T08:17:23;3.20;99.90
18225;DHT22;9237;48.590;8.854;2023-03-03T08:19:52;3.30;99.90
18225;DHT22;9237;48.590;8.854;2023-03-03T08:22:32;3.40;99.90
18225;DHT22;9237;48.590;8.854;2023-03-03T08:25:00;3.60;99.90
18225;DHT22;9237;48.590;8.854;2023-03-03T08:27:27;3.80;99.90
18225;DHT22;9237;48.590;8.854;2023-03-03T08:29:54;3.80;99.90
18225;DHT22;9237;48.590;8.854;2023-03-03T08:32:22;3.90;99.90
18225;DHT22;9237;48.590;8.854;2023-03-03T08:34:49;4.10;99.90
18225;DHT22;9237;48.590;8.854;2023-03-03T08:37:15;4.60;99.90
18225;DHT22;9237;48.590;8.854;2023-03-03T08:39:42;4.30;99.90
18225;DHT22;9237;48.590;8.854;2023-03-03T08:42:09;4.40;99.90
18225;DHT22;9237;48.590;8.854;2023-03-03T08:44:36;4.60;99.90
18225;DHT22;9237;48.590;8.854;2023-03-03T08:47:04;4.40;99.90
18225;DHT22;9237;48.590;8.854;2023-03-03T08:49:32;4.60;99.90
18225;DHT22;9237;48.590;8.854;2023-03-03T08:51:59;4.80;99.90
18225;DHT22;9237;48.590;8.854;2023-03-03T08:54:26;5.00;99.90
18225;DHT22;9237;48.590;8.854;2023-03-03T08:56:52;5.20;99.90
18225;DHT22;9237;48.590;8.854;2023-03-03T08:59:19;5.30;99.90
18225;DHT22;9237;48.590;8.854;2023-03-03T09:01:46;5.30;99.90
18225;DHT22;9237;48.590;8.854;2023-03-03T09:04:13;5.30;99.90
18225;DHT22;9237;48.590;8.854;2023-03-03T09:06:41;5.50;99.90
18225;DHT22;9237;48.590;8.854;2023-03-03T09:09:08;5.30;99.90
18225;DHT22;9237;48.590;8.854;2023-03-03T09:11:35;5.60;99.90
18225;DHT22;9237;48.590;8.854;2023-03-03T09:14:09;5.90;99.90
18225;DHT22;9237;48.590;8.854;2023-03-03T09:16:38;6.70;99.90
18225;DHT22;9237;48.590;8.854;2023-03-03T09:19:20;6.40;99.90
18225;DHT22;9237;48.590;8.854;2023-03-03T09:21:50;6.80;99.90
18225;DHT22;9237;48.590;8.854;2023-03-03T09:24:24;6.90;99.90
18225;DHT22;9237;48.590;8.854;2023-03-03T09:26:52;7.10;99.90
18225;DHT22;9237;48.590;8.854;2023-03-03T09:29:25;7.40;99.90
18225;DHT22;9237;48.590;8.854;2023-03-03T09:31:54;7.60;99.90
18225;DHT22;9237;48.590;8.854;2023-03-03T09:34:24;7.90;99.90
18225;DHT22;9237;48.590;8.854;2023-03-03T09:36:54;7.20;99.90
18225;DHT22;9237;48.590;8.854;2023-03-03T09:39:22;7.20;99.90
18225;DHT22;9237;48.590;8.854;2023-03-03T09:42:08;7.30;99.90
18225;DHT22;9237;48.590;8.854;2023-03-03T09:44:58;7.50;99.90
18225;DHT22;9237;48.590;8.854;2023-03-03T09:47:43;7.60;99.90
18225;DHT22;9237;48.590;8.854;2023-03-03T09:50:25;7.60;99.90
18225;DHT22;9237;48.590;8.854;2023-03-03T09:53:07;7.80;99.90
18225;DHT22;9237;48.590;8.854;2023-03-03T09:55:44;7.70;99.90
18225;DHT22;9237;48.590;8.854;2023-03-03T09:58:33;7.30;99.90
18225;DHT22;9237;48.590;8.854;2023-03-03T10:01:22;7.50;99.90
18225;DHT22;9237;48.590;8.854;2023-03-03T10:04:15;7.60;99.90
18225;DHT22;9237;48.590;8.854;2023-03-03T10:06:47;7.50;99.90
18225;DHT22;9237;48.590;8.854;2023-03-03T10:09:34;7.40;99.90
18225;DHT22;9237;48.590;8.854;2023-03-03T10:12:11;7.40;99.90
18225;DHT22;9237;48.590;8.854;2023-03-03T10:15:02;7.60;99.90
18225;DHT22;9237;48.590;8.854;2023-03-03T10:17:40;7.80;99.90
18225;DHT22;9237;48.590;8.854;2023-03-03T10:20:25;8.00;99.90
18225;DHT22;9237;48.590;8.854;2023-03-03T10:22:55;7.80;99.90
18225;DHT22;9237;48.590;8.854;2023-03-03T10:25:32;7.50;99.90
18225;DHT22;9237;48.590;8.854;2023-03-03T10:28:17;7.90;99.90
18225;DHT22;9237;48.590;8.854;2023-03-03T10:30:53;7.80;99.90
18225;DHT22;9237;48.590;8.854;2023-03-03T10:33:26;7.90;99.90
18225;DHT22;9237;48.590;8.854;2023-03-03T10:36:06;7.90;99.90
18225;DHT22;9237;48.590;8.854;2023-03-03T10:38:45;7.50;99.90
18225;DHT22;9237;48.590;8.854;2023-03-03T10:41:42;7.50;99.90
18225;DHT22;9237;48.590;8.854;2023-03-03T10:47:26;7.80;99.90
18225;DHT22;9237;48.590;8.854;2023-03-03T10:50:01;8.10;99.90
18225;DHT22;9237;48.590;8.854;2023-03-03T10:52:35;8.20;99.90
18225;DHT22;9237;48.590;8.854;2023-03-03T10:55:25;8.60;99.90
18225;DHT22;9237;48.590;8.854;2023-03-03T10:58:06;8.50;99.90
18225;DHT22;9237;48.590;8.854;2023-03-03T11:00:41;8.60;99.90
18225;DHT22;9237;48.590;8.854;2023-03-03T11:03:29;9.60;99.90
18225;DHT22;9237;48.590;8.854;2023-03-03T11:06:04;9.20;99.90
18225;DHT22;9237;48.590;8.854;2023-03-03T11:08:36;9.60;99.90
18225;DHT22;9237;48.590;8.854;2023-03-03T11:11:11;9.90;99.90
18225;DHT22;9237;48.590;8.854;2023-03-03T11:13:46;8.70;99.90
18225;DHT22;9237;48.590;8.854;2023-03-03T11:16:25;8.40;99.90
18225;DHT22;9237;48.590;8.854;2023-03-03T11:19:04;8.80;99.90
18225;DHT22;9237;48.590;8.854;2023-03-03T11:21:40;9.00;99.90
18225;DHT22;9237;48.590;8.854;2023-03-03T11:24:30;9.00;99.90
18225;DHT22;9237;48.590;8.854;2023-03-03T11:27:08;8.90;99.90
18225;DHT22;9237;48.590;8.854;2023-03-03T11:29:49;9.30;99.90
18225;DHT22;9237;48.590;8.854;2023-03-03T11:32:23;9.60;99.90
18225;DHT22;9237;48.590;8.854;2023-03-03T11:35:08;9.50;99.90
18225;DHT22;9237;48.590;8.854;2023-03-03T11:37:45;9.40;99.90
18225;DHT22;9237;48.590;8.854;2023-03-03T11:40:18;9.30;99.90
18225;DHT22;9237;48.590;8.854;2023-03-03T11:42:55;9.70;99.90
18225;DHT22;9237;48.590;8.854;2023-03-03T11:45:33;9.80;99.90
18225;DHT22;9237;48.590;8.854;2023-03-03T11:48:06;9.60;99.90
18225;DHT22;9237;48.590;8.854;2023-03-03T11:50:37;9.60;99.90
18225;DHT22;9237;48.590;8.854;2023-03-03T11:53:19;10.10;99.90
18225;DHT22;9237;48.590;8.854;2023-03-03T11:55:53;9.10;99.90
18225;DHT22;9237;48.590;8.854;2023-03-03T11:58:26;9.60;99.90
18225;DHT22;9237;48.590;8.854;2023-03-03T12:00:58;9.50;99.90
18225;DHT22;9237;48.590;8.854;2023-03-03T12:03:29;10.00;99.90
18225;DHT22;9237;48.590;8.854;2023-03-03T12:06:08;10.40;99.90
18225;DHT22;9237;48.590;8.854;2023-03-03T12:08:43;10.40;99.90
18225;DHT22;9237;48.590;8.854;2023-03-03T12:11:17;10.50;99.90
18225;DHT22;9237;48.590;8.854;2023-03-03T12:13:53;9.90;99.20
18225;DHT22;9237;48.590;8.854;2023-03-03T12:16:32;9.70;99.30
18225;DHT22;9237;48.590;8.854;2023-03-03T12:19:13;9.80;99.00
18225;DHT22;9237;48.590;8.854;2023-03-03T12:21:51;10.10;99.20
18225;DHT22;9237;48.590;8.854;2023-03-03T12:24:31;10.40;98.50
18225;DHT22;9237;48.590;8.854;2023-03-03T12:27:09;10.00;97.80
18225;DHT22;9237;48.590;8.854;2023-03-03T12:29:41;10.20;97.40
18225;DHT22;9237;48.590;8.854;2023-03-03T12:32:21;10.40;96.80
18225;DHT22;9237;48.590;8.854;2023-03-03T12:34:53;10.30;96.80
18225;DHT22;9237;48.590;8.854;2023-03-03T12:37:31;10.80;96.50
18225;DHT22;9237;48.590;8.854;2023-03-03T12:40:07;11.30;95.10
18225;DHT22;9237;48.590;8.854;2023-03-03T12:42:52;10.40;94.70
18225;DHT22;9237;48.590;8.854;2023-03-03T12:45:32;10.00;94.70
18225;DHT22;9237;48.590;8.854;2023-03-03T12:48:08;10.00;94.70
18225;DHT22;9237;48.590;8.854;2023-03-03T12:50:40;10.70;94.60
18225;DHT22;9237;48.590;8.854;2023-03-03T12:53:19;10.50;94.30
18225;DHT22;9237;48.590;8.854;2023-03-03T12:55:52;9.70;94.00
18225;DHT22;9237;48.590;8.854;2023-03-03T12:58:35;9.80;94.10
18225;DHT22;9237;48.590;8.854;2023-03-03T13:01:11;10.20;94.30
18225;DHT22;9237;48.590;8.854;2023-03-03T13:03:48;10.20;93.10
18225;DHT22;9237;48.590;8.854;2023-03-03T13:06:24;9.70;93.30
18225;DHT22;9237;48.590;8.854;2023-03-03T13:09:00;9.80;93.50
18225;DHT22;9237;48.590;8.854;2023-03-03T13:11:40;10.00;93.70
18225;DHT22;9237;48.590;8.854;2023-03-03T13:14:16;10.30;93.20
18225;DHT22;9237;48.590;8.854;2023-03-03T13:16:52;10.10;93.00
18225;DHT22;9237;48.590;8.854;2023-03-03T13:19:26;10.00;92.80
18225;DHT22;9237;48.590;8.854;2023-03-03T13:22:00;9.90;93.10
18225;DHT22;9237;48.590;8.854;2023-03-03T13:24:38;10.10;92.40
18225;DHT22;9237;48.590;8.854;2023-03-03T13:27:10;9.40;92.40
18225;DHT22;9237;48.590;8.854;2023-03-03T13:29:40;9.40;92.60
18225;DHT22;9237;48.590;8.854;2023-03-03T13:32:12;9.60;92.20
18225;DHT22;9237;48.590;8.854;2023-03-03T13:34:50;9.20;91.60
18225;DHT22;9237;48.590;8.854;2023-03-03T13:37:23;10.30;92.40
18225;DHT22;9237;48.590;8.854;2023-03-03T13:39:55;9.60;91.20
18225;DHT22;9237;48.590;8.854;2023-03-03T13:42:27;9.30;91.40
18225;DHT22;9237;48.590;8.854;2023-03-03T13:44:58;10.30;91.30
18225;DHT22;9237;48.590;8.854;2023-03-03T13:47:30;9.90;90.60
18225;DHT22;9237;48.590;8.854;2023-03-03T13:50:08;11.00;88.60
18225;DHT22;9237;48.590;8.854;2023-03-03T13:52:46;11.90;84.20
18225;DHT22;9237;48.590;8.854;2023-03-03T13:55:22;12.90;82.50
18225;DHT22;9237;48.590;8.854;2023-03-03T13:58:10;13.40;78.60
18225;DHT22;9237;48.590;8.854;2023-03-03T14:00:51;13.30;75.90
18225;DHT22;9237;48.590;8.854;2023-03-03T14:03:39;13.40;79.90
18225;DHT22;9237;48.590;8.854;2023-03-03T14:06:13;13.50;75.80
18225;DHT22;9237;48.590;8.854;2023-03-03T14:08:53;13.70;75.90
18225;DHT22;9237;48.590;8.854;2023-03-03T14:11:25;14.60;75.20
18225;DHT22;9237;48.590;8.854;2023-03-03T14:14:01;15.40;71.20
18225;DHT22;9237;48.590;8.854;2023-03-03T14:16:48;15.30;70.10
18225;DHT22;9237;48.590;8.854;2023-03-03T14:19:24;14.30;71.10
18225;DHT22;9237;48.590;8.854;2023-03-03T14:22:03;14.40;71.10
18225;DHT22;9237;48.590;8.854;2023-03-03T14:24:31;14.20;71.10
18225;DHT22;9237;48.590;8.854;2023-03-03T14:27:23;12.80;72.60
18225;DHT22;9237;48.590;8.854;2023-03-03T14:29:50;13.00;73.90
18225;DHT22;9237;48.590;8.854;2023-03-03T14:32:22;12.60;73.80
18225;DHT22;9237;48.590;8.854;2023-03-03T14:34:56;12.80;73.50
18225;DHT22;9237;48.590;8.854;2023-03-03T14:37:26;13.20;71.90
18225;DHT22;9237;48.590;8.854;2023-03-03T14:40:03;14.40;70.50
18225;DHT22;9237;48.590;8.854;2023-03-03T14:42:36;14.50;67.40
18225;DHT22;9237;48.590;8.854;2023-03-03T14:45:19;14.00;69.10
18225;DHT22;9237;48.590;8.854;2023-03-03T14:47:47;14.00;69.30
18225;DHT22;9237;48.590;8.854;2023-03-03T14:50:31;14.20;68.30
18225;DHT22;9237;48.590;8.854;2023-03-03T14:53:09;14.50;67.60
18225;DHT22;9237;48.590;8.854;2023-03-03T14:55:39;15.10;65.20
18225;DHT22;9237;48.590;8.854;2023-03-03T14:58:29;14.60;67.10
18225;DHT22;9237;48.590;8.854;2023-03-03T15:01:15;13.60;68.60
18225;DHT22;9237;48.590;8.854;2023-03-03T15:03:48;13.40;69.00
18225;DHT22;9237;48.590;8.854;2023-03-03T15:06:39;13.30;69.10
18225;DHT22;9237;48.590;8.854;2023-03-03T15:09:32;13.40;70.00
18225;DHT22;9237;48.590;8.854;2023-03-03T15:12:19;13.80;68.60
18225;DHT22;9237;48.590;8.854;2023-03-03T15:14:47;12.90;69.00
18225;DHT22;9237;48.590;8.854;2023-03-03T15:17:26;13.80;68.60
18225;DHT22;9237;48.590;8.854;2023-03-03T15:23:21;13.50;67.70
18225;DHT22;9237;48.590;8.854;2023-03-03T15:25:57;13.20;68.40
18225;DHT22;9237;48.590;8.854;2023-03-03T15:28:37;12.10;71.00
18225;DHT22;9237;48.590;8.854;2023-03-03T15:31:11;12.20;71.50
18225;DHT22;9237;48.590;8.854;2023-03-03T15:33:45;12.40;70.70
18225;DHT22;9237;48.590;8.854;2023-03-03T15:36:19;12.50;69.70
18225;DHT22;9237;48.590;8.854;2023-03-03T15:38:55;11.20;73.70
18225;DHT22;9237;48.590;8.854;2023-03-03T15:41:37;11.10;74.70
18225;DHT22;9237;48.590;8.854;2023-03-03T15:44:12;11.70;73.70
18225;DHT22;9237;48.590;8.854;2023-03-03T15:46:59;11.40;73.20
18225;DHT22;9237;48.590;8.854;2023-03-03T15:49:52;11.10;74.30
18225;DHT22;9237;48.590;8.854;2023-03-03T15:52:32;11.40;74.00
18225;DHT22;9237;48.590;8.854;2023-03-03T15:55:16;11.30;73.70
18225;DHT22;9237;48.590;8.854;2023-03-03T15:57:55;11.40;73.80
18225;DHT22;9237;48.590;8.854;2023-03-03T16:00:45;11.40;73.10
18225;DHT22;9237;48.590;8.854;2023-03-03T16:03:16;11.70;72.80
18225;DHT22;9237;48.590;8.854;2023-03-03T16:05:51;11.80;72.30
18225;DHT22;9237;48.590;8.854;2023-03-03T16:08:23;11.70;72.40
18225;DHT22;9237;48.590;8.854;2023-03-03T16:11:01;11.60;71.80
18225;DHT22;9237;48.590;8.854;2023-03-03T16:13:40;11.40;73.00
18225;DHT22;9237;48.590;8.854;2023-03-03T16:16:17;11.40;73.40
18225;DHT22;9237;48.590;8.854;2023-03-03T16:18:56;10.70;75.10
18225;DHT22;9237;48.590;8.854;2023-03-03T16:21:31;10.20;76.80
18225;DHT22;9237;48.590;8.854;2023-03-03T16:24:16;10.00;77.50
18225;DHT22;9237;48.590;8.854;2023-03-03T16:26:49;9.40;79.70
18225;DHT22;9237;48.590;8.854;2023-03-03T16:29:28;9.00;81.60
18225;DHT22;9237;48.590;8.854;2023-03-03T16:32:01;8.90;82.30
18225;DHT22;9237;48.590;8.854;2023-03-03T16:34:34;8.90;82.10
18225;DHT22;9237;48.590;8.854;2023-03-03T16:37:10;8.50;83.10